createdAt,value
2023-02-13T00:02:12.981Z,43.7
2023-02-13T00:07:31.520Z,43.8
2023-02-13T00:12:49.924Z,43.9
2023-02-13T00:18:08.442Z,43.1
2023-02-13T00:23:26.715Z,43
2023-02-13T00:28:45.218Z,44.2
2023-02-13T00:34:03.482Z,43.8
2023-02-13T00:39:22.272Z,43.8
2023-02-13T00:44:40.440Z,43.4
2023-02-13T00:49:58.445Z,43.4
2023-02-13T00:55:16.950Z,44.2
2023-02-13T01:00:35.415Z,43.5
2023-02-13T01:05:53.939Z,43.3
2023-02-13T01:11:12.734Z,44.1
2023-02-13T01:16:30.980Z,43.1
2023-02-13T01:21:49.229Z,43.2
2023-02-13T01:27:07.222Z,43.3
2023-02-13T01:32:25.168Z,44.3
2023-02-13T01:37:43.911Z,43.3
2023-02-13T01:43:02.170Z,43.5
2023-02-13T01:48:20.654Z,44.2
2023-02-13T01:53:38.959Z,42.9
2023-02-13T01:58:57.761Z,43.6
2023-02-13T02:04:16.534Z,44.2
2023-02-13T02:09:35.025Z,44.2
2023-02-13T02:14:53.545Z,44.2
2023-02-13T02:20:11.460Z,43.9
2023-02-13T02:25:29.961Z,44.2
2023-02-13T02:30:48.407Z,43.3
2023-02-13T02:36:06.733Z,43.5
2023-02-13T02:41:24.928Z,43.7
2023-02-13T02:46:43.923Z,44.6
2023-02-13T02:52:02.672Z,44.3
2023-02-13T02:57:21.571Z,44.1
2023-02-13T03:02:39.812Z,43.3
2023-02-13T03:07:58.022Z,43.7
2023-02-13T03:13:16.495Z,43.9
2023-02-13T03:18:35.028Z,43.5
2023-02-13T03:23:56.275Z,44.4
2023-02-13T03:29:14.943Z,44.6
2023-02-13T03:34:33.165Z,44.4
2023-02-13T03:39:51.920Z,43.6
2023-02-13T03:45:10.685Z,43.8
2023-02-13T03:50:29.224Z,44.3
2023-02-13T03:55:47.976Z,43.5
2023-02-13T04:01:06.375Z,43.4
2023-02-13T04:06:24.864Z,43.9
2023-02-13T04:11:43.349Z,44
2023-02-13T04:17:01.756Z,44
2023-02-13T04:22:20.030Z,43.9
2023-02-13T04:27:38.487Z,44.2
2023-02-13T04:32:57.015Z,43.8
2023-02-13T04:38:15.522Z,43.3
2023-02-13T04:43:33.727Z,43.4
2023-02-13T04:48:52.188Z,44
2023-02-13T04:54:10.453Z,44.1
2023-02-13T04:59:28.382Z,43.8
2023-02-13T05:04:47.028Z,44
2023-02-13T05:10:05.609Z,43.5
2023-02-13T05:15:23.823Z,43.8
2023-02-13T05:20:42.014Z,44.1
2023-02-13T05:26:00.550Z,43.6
2023-02-13T05:31:19.761Z,43.8
2023-02-13T05:36:38.315Z,43.4
2023-02-13T05:41:56.283Z,43.6
2023-02-13T05:47:15.020Z,43.2
2023-02-13T05:52:33.132Z,43.4
2023-02-13T05:57:51.728Z,43.9
2023-02-13T06:03:10.278Z,43.1
2023-02-13T06:08:29.228Z,43.8
2023-02-13T06:13:47.492Z,44
2023-02-13T06:19:05.705Z,42.9
2023-02-13T06:24:24.458Z,43.8
2023-02-13T06:29:42.996Z,43
2023-02-13T06:35:01.972Z,43.3
2023-02-13T06:40:20.402Z,43.7
2023-02-13T06:45:38.646Z,43.6
2023-02-13T06:50:58.288Z,43.5
2023-02-13T06:56:16.517Z,43.7
2023-02-13T07:01:34.994Z,43.9
2023-02-13T07:06:53.777Z,44.2
2023-02-13T07:12:12.077Z,43.9
2023-02-13T07:17:30.865Z,43.4
2023-02-13T07:22:49.360Z,43.2
2023-02-13T07:28:08.034Z,42.7
2023-02-13T07:33:26.415Z,43.2
2023-02-13T07:38:29.339Z,42.5
2023-02-13T07:43:48.392Z,42.5
2023-02-13T07:49:09.692Z,42.3
2023-02-13T07:54:27.939Z,42.5
2023-02-13T07:59:46.276Z,43.1
2023-02-13T08:05:04.552Z,42.6
2023-02-13T08:10:22.734Z,43.1
2023-02-13T08:15:41.252Z,43.1
2023-02-13T08:20:59.866Z,42.5
2023-02-13T08:26:18.308Z,43
2023-02-13T08:31:37.223Z,42.3
2023-02-13T08:36:56.073Z,42.8
2023-02-13T08:42:16.715Z,42.5
2023-02-13T08:47:35.445Z,42.1
2023-02-13T08:52:53.726Z,42.7
2023-02-13T08:58:12.189Z,42.4
2023-02-13T09:03:30.724Z,42.8
2023-02-13T09:08:48.961Z,42.3
2023-02-13T09:14:07.701Z,42.5
2023-02-13T09:19:26.200Z,42.9
2023-02-13T09:24:44.598Z,42.9
2023-02-13T09:30:03.017Z,42.3
2023-02-13T09:35:22.303Z,43.1
2023-02-13T09:40:40.864Z,42.9
2023-02-13T09:45:43.911Z,42.4
2023-02-13T09:51:02.642Z,42.2
2023-02-13T09:56:21.099Z,42
2023-02-13T10:01:39.599Z,42.8
2023-02-13T10:06:57.630Z,42.6
2023-02-13T10:12:16.428Z,42.6
2023-02-13T10:17:35.179Z,42.7
2023-02-13T10:22:53.419Z,41.4
2023-02-13T10:28:12.372Z,42.2
2023-02-13T10:33:31.188Z,42.7
2023-02-13T10:38:49.408Z,42.2
2023-02-13T10:44:08.255Z,42.5
2023-02-13T10:49:26.734Z,42.3
2023-02-13T10:54:48.315Z,42.3
2023-02-13T11:00:06.862Z,42.4
2023-02-13T11:05:25.093Z,41.6
2023-02-13T11:10:43.715Z,42.1
2023-02-13T11:16:03.692Z,41.7
2023-02-13T11:21:22.225Z,41.8
2023-02-13T11:26:40.494Z,42.1
2023-02-13T11:31:59.529Z,42.3
2023-02-13T11:37:18.050Z,42.5
2023-02-13T11:42:36.645Z,41.5
2023-02-13T11:47:55.160Z,42.4
2023-02-13T11:53:13.621Z,42
2023-02-13T11:58:32.461Z,42.4
2023-02-13T12:03:51.026Z,42.8
2023-02-13T12:09:09.587Z,41.3
2023-02-13T12:14:28.151Z,38.7
2023-02-13T12:19:46.465Z,37.7
2023-02-13T12:25:04.401Z,38.1
2023-02-13T12:30:22.946Z,39.7
2023-02-13T12:35:25.812Z,40.4
2023-02-13T12:40:44.271Z,40.8
2023-02-13T12:46:03.955Z,40.2
2023-02-13T12:51:22.849Z,40.6
2023-02-13T12:56:41.044Z,41.3
2023-02-13T13:01:59.967Z,40.7
2023-02-13T13:07:17.958Z,41.2
2023-02-13T13:12:20.909Z,41.7
2023-02-13T13:17:39.510Z,41.8
2023-02-13T13:22:57.778Z,41.7
2023-02-13T13:28:16.257Z,41.3
2023-02-13T13:33:34.314Z,42
2023-02-13T13:38:52.602Z,41.8
2023-02-13T13:44:10.958Z,41.8
2023-02-13T13:49:29.533Z,42.2
2023-02-13T13:54:48.365Z,42.2
2023-02-13T13:59:51.612Z,42.2
2023-02-13T14:05:09.975Z,42.1
2023-02-13T14:10:28.228Z,41.5
2023-02-13T14:15:46.472Z,41.4
2023-02-13T14:21:04.950Z,41.4
2023-02-13T14:26:23.755Z,42.1
2023-02-13T14:31:42.143Z,41.7
2023-02-13T14:37:00.418Z,41.5
2023-02-13T14:42:18.951Z,42.3
2023-02-13T14:47:37.464Z,41.6
2023-02-13T14:52:56.944Z,41.7
2023-02-13T14:58:16.381Z,42
2023-02-13T15:03:35.397Z,41.7
2023-02-13T15:08:54.490Z,41.8
2023-02-13T15:14:13.924Z,42.4
2023-02-13T15:19:33.090Z,41.6
2023-02-13T15:24:51.324Z,42.2
2023-02-13T15:30:09.859Z,41.9
2023-02-13T15:35:27.843Z,41.6
2023-02-13T15:40:46.301Z,42
2023-02-13T15:46:05.222Z,42.5
2023-02-13T15:51:23.549Z,41.8
2023-02-13T15:56:42.498Z,42.6
2023-02-13T16:02:01.333Z,42.2
2023-02-13T16:07:20.031Z,41.7
2023-02-13T16:12:38.740Z,42.5
2023-02-13T16:17:57.095Z,42.4
2023-02-13T16:23:15.963Z,41.9
2023-02-13T16:28:34.484Z,42.2
2023-02-13T16:33:52.758Z,42.7
2023-02-13T16:39:10.645Z,42.5
2023-02-13T16:44:28.956Z,42.7
2023-02-13T16:49:47.847Z,42.2
2023-02-13T16:55:06.603Z,42.7
2023-02-13T17:00:26.331Z,42.3
2023-02-13T17:05:44.837Z,41.7
2023-02-13T17:11:03.700Z,42.4
2023-02-13T17:16:22.156Z,41.7
2023-02-13T17:21:40.937Z,42.6
2023-02-13T17:26:59.130Z,42.2
2023-02-13T17:32:17.863Z,41.6
2023-02-13T17:37:35.853Z,42.3
2023-02-13T17:42:57.008Z,42.4
2023-02-13T17:48:15.804Z,41.6
2023-02-13T17:53:34.327Z,41.5
2023-02-13T17:58:53.101Z,41.8
2023-02-13T18:04:11.972Z,42.3
2023-02-13T18:09:30.248Z,41.4
2023-02-13T18:14:48.736Z,42.4
2023-02-13T18:20:07.221Z,41.8
2023-02-13T18:25:25.436Z,43.6
2023-02-13T18:30:44.768Z,43
2023-02-13T18:36:03.484Z,42.9
2023-02-13T18:41:22.262Z,43.6
2023-02-13T18:46:40.729Z,43.4
2023-02-13T18:51:59.671Z,43.5
2023-02-13T18:57:17.913Z,43.8
2023-02-13T19:02:36.629Z,43.7
2023-02-13T19:07:55.149Z,43.7
2023-02-13T19:13:15.017Z,43.7
2023-02-13T19:18:33.920Z,43.4
2023-02-13T19:23:52.396Z,43.8
2023-02-13T19:29:10.825Z,44.1
2023-02-13T19:34:29.574Z,43.4
2023-02-13T19:39:48.069Z,42.9
2023-02-13T19:45:07.112Z,43.3
2023-02-13T19:50:25.333Z,42.6
2023-02-13T19:55:44.174Z,42.5
2023-02-13T20:01:03.124Z,43.2
2023-02-13T20:06:21.474Z,42.5
2023-02-13T20:11:40.327Z,43.5
2023-02-13T20:16:58.990Z,43.1
2023-02-13T20:22:17.457Z,43.1
2023-02-13T20:27:38.792Z,43
2023-02-13T20:32:57.835Z,43.1
2023-02-13T20:38:16.643Z,42.4
2023-02-13T20:43:34.728Z,42.5
2023-02-13T20:48:53.277Z,43.4
2023-02-13T20:54:11.724Z,42.3
2023-02-13T20:59:30.280Z,42.8
2023-02-13T21:04:49.191Z,43.1
2023-02-13T21:10:08.039Z,42.7
2023-02-13T21:15:26.521Z,43.1
2023-02-13T21:20:45.090Z,43.7
2023-02-13T21:26:03.005Z,44.6
2023-02-13T21:31:21.498Z,44.4
2023-02-13T21:36:39.592Z,44.7
2023-02-13T21:41:57.747Z,45
2023-02-13T21:47:15.784Z,44.7
2023-02-13T21:52:34.351Z,44.7
2023-02-13T21:57:52.541Z,45.4
2023-02-13T22:03:11.086Z,45.1
2023-02-13T22:08:29.943Z,44.5
2023-02-13T22:13:48.161Z,45.3
2023-02-13T22:19:06.903Z,45.6
2023-02-13T22:24:25.135Z,45.3
2023-02-13T22:29:43.614Z,45.5
2023-02-13T22:35:01.876Z,44.7
2023-02-13T22:40:20.384Z,45.3
2023-02-13T22:45:39.144Z,44.7
2023-02-13T22:50:59.297Z,44.9
2023-02-13T22:56:18.009Z,44.4
2023-02-13T23:01:36.204Z,45
2023-02-13T23:06:54.982Z,44.3
2023-02-13T23:12:13.497Z,45.2
2023-02-13T23:17:31.394Z,45.3
2023-02-13T23:22:49.935Z,45.4
2023-02-13T23:28:08.160Z,44.7
2023-02-13T23:33:26.376Z,44.6
2023-02-13T23:38:45.146Z,44.6
2023-02-13T23:44:03.837Z,45.2
2023-02-13T23:49:21.765Z,44.5
2023-02-13T23:54:40.274Z,45.3
2023-02-13T23:59:58.527Z,45.1
